Terminal Aerodrome Forecast
Issued by NWS Cleveland, OH

Home | Current Version | Previous Version | Graphics & Text | Print | Product List | Glossary On
Versions: 1 2 3 4 5 6 7 8 9 10 11 12 13 14 15
000
FTUS41 KCLE 220525
TAFYNG
TAF
KYNG 220525Z 2206/2306 35010KT P6SM SCT025 OVC035
      TEMPO 2206/2209 BKN025
     FM220900 35006KT P6SM OVC025
     FM221600 36010KT P6SM OVC035
     FM222000 36010KT P6SM BKN035=

USA.gov is the U.S. government's official web portal to all federal, state and local government web resources and services.